Airfield :
LOGIN :

Register | Disclaimer

   EN    FR    IT 

 










Legend :    VFR   Marginal VFR   IFR   Intensive IFR   Very Intensive IFR
Visi :
Ceiling :
>= 8 km
>= 3000ft
5 to 8 km
1000 to 3000 ft
1500m to 5 km
500 to 1000 ft
800 to 1500m
200 to 500 ft
< 800m
< 200 ft
Symbols :   Thunderstorms  Fog  Heavy snow  Heavy precipitations  Wind > 20 kt
SIGMETs :     Misc.  Thunderstorms  Icing  Turbulence  Mountain Waves  Volcanic Ashes






- Airport Elevation : 83 ft
- IATA code : LHR


EGLL - London Heathrow

CURRENT METAR :
  • 201350Z AUTO 20017KT 9999 -RA BKN011 OVC018 10/08 Q0986 TEMPO RADZ BKN008

EXPIRED METARs :
  • 201320Z AUTO 20016KT 9999 -RA OVC010 10/08 Q0986
  • 201250Z AUTO 20017KT 9999 -RA BKN009 OVC013 10/08 Q0987 TEMPO 4000 RADZ
  • 201220Z AUTO 20018KT 9000 -RA BKN009 OVC016 10/08 Q0988 TEMPO RA
  • 201150Z AUTO 20019KT 9999 -RA BKN011 OVC017 10/08 Q0988 TEMPO RADZ BKN008
  • 201120Z AUTO 20018KT 9999 -RA OVC010 10/08 Q0989 TEMPO RA BKN008

TAF TAF EGLL
Valid from the 20 at 12:00 until the 21 at 18:00 UTC


201102Z 2012/2118 19015KT 9999 BKN012
TEMPO 2012/2020 19018G28KT 7000 RA BKN008
PROB40
TEMPO 2012/2022 4000 RADZ
TEMPO 2020/2101 18020G35KT 6000 RA BKN008
PROB40
TEMPO 2022/2101 3000 +RA
BECMG 2023/2102 25015KT SCT020
TEMPO 2100/2112 26018G30KT
PROB30
TEMPO 2100/2112 7000 SHRA BKN014
BECMG 2115/2118 23005KT



MET'MAP, your aeronautical weather chart ! - Copyright ORBIFLY December 2007 - Disclaimer

ORBIFLY MET'MAP TEAM :

Programming & Development : Alexandra Zaïnal
Concept & original design : Baudouin d'Aumeries
Assistance for programming : Marc-Olivier Méhu
Technical & hardware support : Manuel Goepfert

Contact : metmap@orbifly.com




SOURCES & CREDITS :

   NOAA